Narka, Kansas
Current Conditions -  °F | °C
As of 12:35 PM on Monday 22 Dec 2014 (Local Time) from KHJH Reporting Station
Scattered Clouds Scattered Clouds  
Wind Chill: 40°   Ceiling: Unl
Heat Index: 46°   Visibility: 10mi
Dew Point: 37°   Wind: 13mph
Humidity: 71%   Direction: 320°NW
Pressure: 29.47"   Gusts: 22mph
Location:  39.96°N, 97.43°W
Report Text: KHJH 221835Z AUTO 32011G19KT 10SM SCT027 08/03 A2947 RMK AO2 T00770027
Loading
Personal Weather Stations






























Interactive Weather Map New forecast layout! Learn more

10-Day Weather Forecast

Advertisements
Track Severe Weather on mobile